DEAMC EDWQ-EDWQ
Flight info
| Callsign | DEAMC |
|---|---|
| Flight time | 0h 31m |
| Altitude | 5000 |
| Route | EDDG |
| Aircraft | C172/L-SFG/C |
Departure
| Time | 2026-05-05 15:57 |
|---|---|
| Airport | Ganderkesee Atlas Airfield (EDWQ) |
Arrival
| Time | 2026-05-05 16:28 |
|---|---|
| Airport | Ganderkesee Atlas Airfield (EDWQ) |
| Time | Latitude | Longitude | Altitude | Speed | Heading |
|---|---|---|---|---|---|
| 2026-05-05 15:41 | 53.03506 | 8.50551 | 101 ft | 0 kts | 79° |
| 2026-05-05 15:51 | 53.03506 | 8.50552 | 101 ft | 0 kts | 79° |
| 2026-05-05 15:52 | 53.03508 | 8.50560 | 102 ft | 3 kts | 60° |
| 2026-05-05 15:52 | 53.03553 | 8.50556 | 102 ft | 9 kts | 330° |
| 2026-05-05 15:52 | 53.03550 | 8.50468 | 102 ft | 9 kts | 258° |
| 2026-05-05 15:53 | 53.03535 | 8.50352 | 102 ft | 12 kts | 258° |
| 2026-05-05 15:53 | 53.03519 | 8.50231 | 102 ft | 10 kts | 257° |
| 2026-05-05 15:53 | 53.03506 | 8.50127 | 102 ft | 8 kts | 259° |
| 2026-05-05 15:53 | 53.03496 | 8.50039 | 102 ft | 7 kts | 261° |
| 2026-05-05 15:54 | 53.03500 | 8.50004 | 102 ft | 0 kts | 295° |
| 2026-05-05 15:55 | 53.03500 | 8.50003 | 102 ft | 1 kts | 296° |
| 2026-05-05 15:55 | 53.03527 | 8.49953 | 103 ft | 9 kts | 6° |
| 2026-05-05 15:55 | 53.03550 | 8.50086 | 103 ft | 30 kts | 78° |
| 2026-05-05 15:56 | 53.03630 | 8.50700 | 127 ft | 71 kts | 77° |
| 2026-05-05 15:56 | 53.03741 | 8.51518 | 366 ft | 72 kts | 75° |
| 2026-05-05 15:56 | 53.03886 | 8.52353 | 547 ft | 79 kts | 62° |
| 2026-05-05 15:56 | 53.04416 | 8.52761 | 653 ft | 99 kts | 6° |
| 2026-05-05 15:57 | 53.05029 | 8.52126 | 759 ft | 115 kts | 306° |
| 2026-05-05 15:57 | 53.05218 | 8.50760 | 828 ft | 121 kts | 288° |
| 2026-05-05 15:57 | 53.05486 | 8.49471 | 990 ft | 116 kts | 296° |
| 2026-05-05 15:57 | 53.05766 | 8.48211 | 1075 ft | 115 kts | 294° |
| 2026-05-05 15:58 | 53.05949 | 8.46927 | 1198 ft | 117 kts | 276° |
| 2026-05-05 15:58 | 53.05894 | 8.45520 | 1220 ft | 125 kts | 271° |
| 2026-05-05 15:58 | 53.05936 | 8.44134 | 1325 ft | 119 kts | 279° |
| 2026-05-05 15:58 | 53.05903 | 8.42734 | 1351 ft | 122 kts | 262° |
| 2026-05-05 15:59 | 53.06102 | 8.41463 | 1392 ft | 116 kts | 306° |
| 2026-05-05 15:59 | 53.06478 | 8.40285 | 1468 ft | 112 kts | 303° |
| 2026-05-05 15:59 | 53.06693 | 8.39061 | 1578 ft | 108 kts | 288° |
| 2026-05-05 15:59 | 53.06789 | 8.37789 | 1718 ft | 116 kts | 278° |
| 2026-05-05 16:00 | 53.06842 | 8.36434 | 1857 ft | 119 kts | 279° |
| 2026-05-05 16:00 | 53.06915 | 8.35047 | 1964 ft | 122 kts | 287° |
| 2026-05-05 16:00 | 53.07281 | 8.33806 | 1970 ft | 119 kts | 321° |
| 2026-05-05 16:00 | 53.07699 | 8.33216 | 1973 ft | 116 kts | 325° |
| 2026-05-05 16:01 | 53.08500 | 8.32067 | 1971 ft | 115 kts | 323° |
| 2026-05-05 16:01 | 53.08941 | 8.31337 | 1967 ft | 116 kts | 320° |
| 2026-05-05 16:01 | 53.09463 | 8.30458 | 1968 ft | 115 kts | 321° |
| 2026-05-05 16:01 | 53.09908 | 8.29333 | 1949 ft | 124 kts | 281° |
| 2026-05-05 16:02 | 53.09841 | 8.28428 | 1955 ft | 123 kts | 263° |
| 2026-05-05 16:02 | 53.09679 | 8.27068 | 1953 ft | 123 kts | 253° |
| 2026-05-05 16:02 | 53.08895 | 8.25480 | 1951 ft | 122 kts | 219° |
| 2026-05-05 16:02 | 53.08090 | 8.24650 | 1961 ft | 119 kts | 212° |
| 2026-05-05 16:03 | 53.07758 | 8.24311 | 1960 ft | 118 kts | 211° |
| 2026-05-05 16:03 | 53.07378 | 8.23924 | 1962 ft | 118 kts | 212° |
| 2026-05-05 16:03 | 53.06206 | 8.22783 | 1949 ft | 118 kts | 203° |
| 2026-05-05 16:03 | 53.05444 | 8.22201 | 1954 ft | 118 kts | 204° |
| 2026-05-05 16:04 | 53.04579 | 8.21544 | 1957 ft | 119 kts | 204° |
| 2026-05-05 16:04 | 53.03852 | 8.20992 | 1954 ft | 120 kts | 202° |
| 2026-05-05 16:04 | 53.03391 | 8.20725 | 1960 ft | 120 kts | 195° |
| 2026-05-05 16:05 | 53.01405 | 8.19899 | 1961 ft | 119 kts | 191° |
| 2026-05-05 16:05 | 53.00850 | 8.19677 | 1961 ft | 119 kts | 191° |
| 2026-05-05 16:05 | 52.99813 | 8.19259 | 1958 ft | 118 kts | 191° |
| 2026-05-05 16:05 | 52.99080 | 8.18916 | 1954 ft | 119 kts | 197° |
| 2026-05-05 16:06 | 52.98451 | 8.18568 | 1959 ft | 118 kts | 196° |
| 2026-05-05 16:06 | 52.97605 | 8.18082 | 1955 ft | 117 kts | 195° |
| 2026-05-05 16:06 | 52.96875 | 8.17795 | 1957 ft | 116 kts | 190° |
| 2026-05-05 16:06 | 52.96029 | 8.17487 | 1957 ft | 115 kts | 190° |
| 2026-05-05 16:07 | 52.95571 | 8.17320 | 1955 ft | 115 kts | 190° |
| 2026-05-05 16:07 | 52.94409 | 8.16893 | 1945 ft | 116 kts | 190° |
| 2026-05-05 16:07 | 52.93712 | 8.16632 | 1956 ft | 117 kts | 190° |
| 2026-05-05 16:07 | 52.92920 | 8.16410 | 1957 ft | 116 kts | 183° |
| 2026-05-05 16:08 | 52.92105 | 8.16244 | 1959 ft | 116 kts | 184° |
| 2026-05-05 16:08 | 52.91314 | 8.16088 | 1958 ft | 116 kts | 184° |
| 2026-05-05 16:08 | 52.90508 | 8.16102 | 1959 ft | 114 kts | 167° |
| 2026-05-05 16:08 | 52.89757 | 8.16452 | 1957 ft | 113 kts | 157° |
| 2026-05-05 16:09 | 52.89006 | 8.16848 | 1988 ft | 109 kts | 158° |
| 2026-05-05 16:09 | 52.88297 | 8.17243 | 2054 ft | 106 kts | 158° |
| 2026-05-05 16:09 | 52.87605 | 8.17631 | 2125 ft | 104 kts | 157° |
| 2026-05-05 16:09 | 52.86928 | 8.18012 | 2196 ft | 102 kts | 157° |
| 2026-05-05 16:10 | 52.86263 | 8.18377 | 2253 ft | 102 kts | 156° |
| 2026-05-05 16:10 | 52.85565 | 8.18741 | 2264 ft | 106 kts | 158° |
| 2026-05-05 16:10 | 52.84857 | 8.19113 | 2266 ft | 108 kts | 158° |
| 2026-05-05 16:10 | 52.84101 | 8.19468 | 2267 ft | 111 kts | 165° |
| 2026-05-05 16:11 | 52.83345 | 8.19585 | 2266 ft | 114 kts | 178° |
| 2026-05-05 16:11 | 52.80933 | 8.19465 | 2264 ft | 117 kts | 184° |
| 2026-05-05 16:12 | 52.80120 | 8.19263 | 2265 ft | 117 kts | 193° |
| 2026-05-05 16:12 | 52.78520 | 8.18634 | 2267 ft | 118 kts | 191° |
| 2026-05-05 16:13 | 52.77231 | 8.19822 | 2245 ft | 95 kts | 30° |
| 2026-05-05 16:13 | 52.77890 | 8.19970 | 2263 ft | 96 kts | 12° |
| 2026-05-05 16:13 | 52.78550 | 8.20237 | 2268 ft | 100 kts | 15° |
| 2026-05-05 16:14 | 52.79933 | 8.20786 | 2267 ft | 104 kts | 15° |
| 2026-05-05 16:14 | 52.81365 | 8.21225 | 2180 ft | 106 kts | 7° |
| 2026-05-05 16:15 | 52.82862 | 8.21394 | 2024 ft | 108 kts | 8° |
| 2026-05-05 16:15 | 52.84334 | 8.21557 | 1957 ft | 102 kts | 8° |
| 2026-05-05 16:16 | 52.85748 | 8.21735 | 1948 ft | 101 kts | 8° |
| 2026-05-05 16:16 | 52.87127 | 8.21329 | 1952 ft | 101 kts | 353° |
| 2026-05-05 16:17 | 52.88439 | 8.20624 | 1958 ft | 106 kts | 315° |
| 2026-05-05 16:17 | 52.88921 | 8.19714 | 1956 ft | 104 kts | 322° |
| 2026-05-05 16:18 | 52.90161 | 8.18692 | 1967 ft | 98 kts | 6° |
| 2026-05-05 16:18 | 52.90852 | 8.18714 | 1970 ft | 99 kts | 4° |
| 2026-05-05 16:18 | 52.92233 | 8.18684 | 1968 ft | 100 kts | 2° |
| 2026-05-05 16:19 | 52.92915 | 8.18677 | 1968 ft | 98 kts | 10° |
| 2026-05-05 16:19 | 52.93593 | 8.18787 | 1965 ft | 98 kts | 9° |
| 2026-05-05 16:19 | 52.95009 | 8.19038 | 1970 ft | 104 kts | 9° |
| 2026-05-05 16:20 | 52.96431 | 8.19283 | 1972 ft | 104 kts | 11° |
| 2026-05-05 16:20 | 52.97844 | 8.19766 | 1959 ft | 104 kts | 17° |
| 2026-05-05 16:21 | 52.99243 | 8.20373 | 1958 ft | 103 kts | 34° |
| 2026-05-05 16:22 | 52.99916 | 8.23702 | 1972 ft | 103 kts | 74° |
| 2026-05-05 16:22 | 53.00307 | 8.26097 | 1841 ft | 110 kts | 73° |
| 2026-05-05 16:23 | 53.00642 | 8.28119 | 1719 ft | 109 kts | 72° |
| 2026-05-05 16:23 | 53.00844 | 8.29329 | 1571 ft | 108 kts | 72° |
| 2026-05-05 16:23 | 53.01284 | 8.32029 | 1455 ft | 98 kts | 72° |
| 2026-05-05 16:24 | 53.01408 | 8.32771 | 1461 ft | 99 kts | 72° |
| 2026-05-05 16:24 | 53.01639 | 8.34247 | 1463 ft | 100 kts | 72° |
| 2026-05-05 16:24 | 53.01785 | 8.36176 | 1468 ft | 102 kts | 82° |
| 2026-05-05 16:25 | 53.01899 | 8.37341 | 1470 ft | 103 kts | 72° |
| 2026-05-05 16:25 | 53.02141 | 8.39713 | 1557 ft | 99 kts | 76° |
| 2026-05-05 16:25 | 53.02311 | 8.40837 | 1555 ft | 102 kts | 72° |
| 2026-05-05 16:26 | 53.02634 | 8.43148 | 1402 ft | 100 kts | 75° |
| 2026-05-05 16:26 | 53.02931 | 8.45335 | 1085 ft | 85 kts | 77° |
| 2026-05-05 16:27 | 53.03052 | 8.46261 | 989 ft | 71 kts | 74° |
| 2026-05-05 16:27 | 53.03160 | 8.47056 | 797 ft | 72 kts | 75° |
| 2026-05-05 16:27 | 53.03260 | 8.47854 | 565 ft | 71 kts | 77° |
| 2026-05-05 16:27 | 53.03363 | 8.48648 | 360 ft | 66 kts | 76° |
| 2026-05-05 16:28 | 53.03454 | 8.49363 | 204 ft | 64 kts | 74° |
| 2026-05-05 16:28 | 53.03550 | 8.50095 | 109 ft | 62 kts | 76° |
| 2026-05-05 16:28 | 53.03619 | 8.50608 | 97 ft | 29 kts | 79° |
| 2026-05-05 16:28 | 53.03644 | 8.50822 | 97 ft | 9 kts | 97° |
| 2026-05-05 16:29 | 53.03603 | 8.50874 | 96 ft | 6 kts | 110° |
| 2026-05-05 16:29 | 53.03610 | 8.50931 | 96 ft | 4 kts | 77° |
| 2026-05-05 16:29 | 53.03618 | 8.50999 | 96 ft | 8 kts | 78° |
| 2026-05-05 16:29 | 53.03625 | 8.51093 | 96 ft | 5 kts | 73° |
| 2026-05-05 16:30 | 53.03625 | 8.51095 | 96 ft | 0 kts | 74° |